createdAt,value
2023-02-12T00:09:52.246Z,67.98
2023-02-12T00:19:54.691Z,67.86
2023-02-12T00:29:57.171Z,69.05
2023-02-12T00:39:59.690Z,69.39
2023-02-12T00:50:02.271Z,70.17
2023-02-12T01:00:05.632Z,70.90
2023-02-12T01:10:08.946Z,71.19
2023-02-12T01:20:14.818Z,72.06
2023-02-12T01:30:17.422Z,72.35
2023-02-12T01:40:19.965Z,72.22
2023-02-12T01:50:23.048Z,72.22
2023-02-12T02:00:26.028Z,73.05
2023-02-12T02:10:30.368Z,73.13
2023-02-12T02:20:57.361Z,75.50
2023-02-12T02:31:15.366Z,78.04
2023-02-12T02:41:36.388Z,77.90
2023-02-12T02:51:43.336Z,80.81
2023-02-12T03:01:52.905Z,82.08
2023-02-12T03:12:01.185Z,85.05
2023-02-12T03:22:09.310Z,86.00
2023-02-12T03:32:27.898Z,86.44
2023-02-12T03:42:43.725Z,86.43
2023-02-12T03:52:47.465Z,85.22
2023-02-12T04:02:50.634Z,85.61
2023-02-12T04:13:01.436Z,85.96
2023-02-12T04:23:42.321Z,86.19
2023-02-12T04:34:13.298Z,85.90
2023-02-12T04:44:17.324Z,86.08
2023-02-12T04:54:21.377Z,85.23
2023-02-12T05:04:23.894Z,85.79
2023-02-12T05:14:26.389Z,85.61
2023-02-12T05:24:28.911Z,84.93
2023-02-12T05:34:31.430Z,85.55
2023-02-12T05:44:33.855Z,85.48
2023-02-12T05:54:36.265Z,86.13
2023-02-12T06:04:38.790Z,86.67
2023-02-12T06:14:41.694Z,88.21
2023-02-12T06:24:44.177Z,88.45
2023-02-12T06:34:46.610Z,88.45
2023-02-12T06:44:51.312Z,86.87
2023-02-12T06:54:55.151Z,85.12
2023-02-12T07:04:57.629Z,82.63
2023-02-12T07:15:00.104Z,79.56
2023-02-12T07:25:02.699Z,77.98
2023-02-12T07:35:05.412Z,78.16
2023-02-12T07:45:08.235Z,74.86
2023-02-12T07:55:10.925Z,71.02
2023-02-12T08:05:13.426Z,71.59
2023-02-12T08:15:15.995Z,69.69
2023-02-12T08:25:18.451Z,68.10
2023-02-12T08:35:21.066Z,68.70
2023-02-12T08:45:23.583Z,68.62
2023-02-12T08:55:26.133Z,70.71
2023-02-12T09:05:28.589Z,70.96
2023-02-12T09:15:36.152Z,70.31
2023-02-12T09:25:44.098Z,70.33
2023-02-12T09:35:46.893Z,69.07
2023-02-12T09:46:21.744Z,69.82
2023-02-12T09:56:27.045Z,67.03
2023-02-12T10:06:35.834Z,63.15
2023-02-12T10:17:04.208Z,60.10
2023-02-12T10:27:20.517Z,56.33
2023-02-12T10:37:44.691Z,52.56
2023-02-12T10:47:52.607Z,51.03
2023-02-12T10:57:55.801Z,52.14
2023-02-12T11:07:58.573Z,51.30
2023-02-12T11:18:05.484Z,53.58
2023-02-12T11:28:14.430Z,52.86
2023-02-12T11:38:24.621Z,45.98
2023-02-12T11:48:31.324Z,44.51
2023-02-12T11:58:33.935Z,43.54
2023-02-12T12:08:44.876Z,45.22
2023-02-12T12:19:14.147Z,46.79
2023-02-12T12:29:33.522Z,49.08
2023-02-12T12:40:14.942Z,51.32
2023-02-12T12:50:38.923Z,48.44
2023-02-12T13:01:04.293Z,47.85
2023-02-12T13:11:44.566Z,43.64
2023-02-12T13:22:16.564Z,40.75
2023-02-12T13:32:36.452Z,54.39
2023-02-12T13:42:49.971Z,59.55
2023-02-12T13:53:26.455Z,59.71
2023-02-12T14:03:31.287Z,61.44
2023-02-12T14:13:46.047Z,64.43
2023-02-12T14:23:50.823Z,64.91
2023-02-12T14:34:15.406Z,66.55
2023-02-12T14:44:18.134Z,68.28
2023-02-12T14:54:35.631Z,68.32
2023-02-12T15:04:38.755Z,70.79
2023-02-12T15:14:45.825Z,71.57
2023-02-12T15:24:49.150Z,68.71
2023-02-12T15:34:53.302Z,68.58
2023-02-12T15:45:22.684Z,69.38
2023-02-12T15:55:28.762Z,70.86
2023-02-12T16:05:35.018Z,72.29
2023-02-12T16:15:40.389Z,73.35
2023-02-12T16:25:43.382Z,74.82
2023-02-12T16:35:45.878Z,76.05
2023-02-12T16:45:49.401Z,76.98
2023-02-12T16:55:51.983Z,77.38
2023-02-12T17:05:55.123Z,77.15
2023-02-12T17:16:01.819Z,79.25
2023-02-12T17:26:05.547Z,78.34
2023-02-12T17:36:11.207Z,79.47
2023-02-12T17:46:19.426Z,79.96
2023-02-12T17:56:25.674Z,80.32
2023-02-12T18:06:30.946Z,80.36
2023-02-12T18:16:35.062Z,82.01
2023-02-12T18:26:38.021Z,82.88
2023-02-12T18:36:40.895Z,83.19
2023-02-12T18:46:44.582Z,83.37
2023-02-12T18:56:51.230Z,82.34
2023-02-12T19:06:54.732Z,83.77
2023-02-12T19:16:57.571Z,84.96
2023-02-12T19:27:00.333Z,86.79
2023-02-12T19:37:03.210Z,86.32
2023-02-12T19:47:05.810Z,87.10
2023-02-12T19:57:09.400Z,87.93
2023-02-12T20:07:12.340Z,87.05
2023-02-12T20:17:15.166Z,87.71
2023-02-12T20:27:19.018Z,88.27
2023-02-12T20:37:21.838Z,88.12
2023-02-12T20:47:28.793Z,88.17
2023-02-12T20:57:34.706Z,89.13
2023-02-12T21:07:37.467Z,90.21
2023-02-12T21:17:41.153Z,92.26
2023-02-12T21:27:44.052Z,92.97
2023-02-12T21:37:46.818Z,91.24
2023-02-12T21:47:49.548Z,90.71
2023-02-12T21:57:52.288Z,90.64
2023-02-12T22:07:54.989Z,91.55
2023-02-12T22:17:57.470Z,96.59
2023-02-12T22:28:01.163Z,94.00
2023-02-12T22:38:03.785Z,92.86
2023-02-12T22:48:06.237Z,91.96
2023-02-12T22:58:08.808Z,94.22
2023-02-12T23:08:11.293Z,94.26
2023-02-12T23:18:13.877Z,100.00
2023-02-12T23:28:17.494Z,95.61
2023-02-12T23:38:20.088Z,97.39
2023-02-12T23:48:22.630Z,97.89
2023-02-12T23:58:25.097Z,96.78
